EDT,Max TemperatureF,Mean TemperatureF,Min TemperatureF,Max Dew PointF,MeanDew PointF,Min DewpointF,Max Humidity, Mean Humidity, Min Humidity, Max Sea Level PressureIn, Mean Sea Level PressureIn, Min Sea Level PressureIn, Max VisibilityMiles, Mean VisibilityMiles, Min VisibilityMiles, Max Wind SpeedMPH, Mean Wind SpeedMPH, Max Gust SpeedMPH,PrecipitationIn, CloudCover, Events, WindDirDegrees
2013-3-1,39,34,29,34,29,25,96,75,58,30.43,30.20,29.54,10,10,10,18,6,21,0.00,6,,323
2013-3-2,41,35,29,28,25,23,78,65,55,30.43,30.35,29.65,10,10,10,12,8,,0.00,7,,330
2013-3-3,39,34,30,29,26,23,86,74,61,30.40,30.06,29.57,10,8,1,14,7,,0.00,6,Snow,324
2013-3-4,36,33,30,27,22,18,79,65,51,30.51,30.30,29.61,10,10,10,25,14,30,0.00,4,,319
2013-3-5,43,36,30,33,26,20,92,65,48,30.84,30.67,30.07,10,10,8,12,7,,0.00,6,,353
2013-3-6,37,34,32,34,31,28,93,87,75,30.91,30.39,30.07,10,5,1,16,7,25,0.09,7,Rain-Snow,37
2013-3-7,34,32,30,30,28,23,93,85,69,30.89,30.31,30.03,10,3,0,16,11,23,0.01,6,Snow,2
2013-3-8,41,36,30,31,27,20,93,80,45,30.94,30.31,29.99,10,3,0,15,11,21,0.15,4,Fog-Snow,355
2013-3-9,52,37,22,27,21,12,89,60,20,31.14,31.03,30.94,10,10,10,10,5,,0.00,0,,350
2013-3-10,45,32,20,30,26,18,92,73,52,31.15,30.42,28.21,10,10,10,8,4,,0.00,0,,114
2013-3-11,50,40,29,37,31,27,96,73,46,31.08,30.91,30.15,10,10,7,7,2,,0.00,2,,140
2013-3-12,54,46,37,52,46,36,100,93,77,30.89,30.20,29.71,10,6,0,9,5,17,0.39,7,Fog-Rain,135
2013-3-13,50,42,32,48,29,19,88,60,33,30.53,30.40,29.73,10,10,10,17,8,22,0.00,2,,301
2013-3-14,34,28,22,22,12,4,69,48,37,30.60,30.52,30.46,10,10,10,17,8,31,0.00,3,,300
2013-3-15,39,29,19,28,12,1,81,50,23,30.63,30.44,29.63,10,10,4,17,12,25,0.00,2,,298
2013-3-16,36,31,26,21,11,6,66,44,29,30.65,30.56,30.45,10,10,10,15,8,16,0.00,2,,320
2013-3-17,36,28,21,16,8,-1,78,46,24,31.10,30.83,30.65,10,10,10,24,7,33,0.00,1,,323
2013-3-18,37,26,15,27,7,-3,93,46,19,31.15,29.88,28.21,10,9,1,10,3,,0.00,1,,144
2013-3-19,32,30,26,31,29,22,96,91,84,30.97,30.06,29.67,9,1,0,18,8,23,0.03,6,Fog-Snow,53
2013-3-20,36,30,25,22,20,17,88,70,45,30.57,30.46,29.72,10,10,2,14,7,23,0.07,4,,282
2013-3-21,38,26,16,24,16,11,91,62,36,30.56,30.47,30.36,10,10,10,9,2,,0.17,2,,323
2013-3-22,39,32,27,20,17,12,69,54,35,30.48,30.42,30.37,10,10,8,13,8,25,0.05,3,,304
2013-3-23,43,35,27,21,17,14,72,52,32,30.53,30.46,30.39,10,10,10,23,10,37,0.02,2,,295
2013-3-24,43,38,32,23,21,19,67,51,40,30.57,30.53,30.49,10,10,10,21,10,30,0.00,3,,328
2013-3-25,43,35,27,29,26,22,81,66,56,30.53,30.40,30.30,10,10,10,14,5,24,0.00,4,,30
2013-3-26,50,41,34,27,23,17,70,52,30,30.54,30.41,30.31,10,10,10,14,7,22,0.00,4,,327
2013-3-27,54,40,27,32,24,20,84,53,30,30.63,30.55,30.50,10,10,10,18,6,26,0.00,2,,334
2013-3-28,48,42,36,34,31,27,89,68,44,30.77,30.60,29.89,10,10,10,14,8,,0.01,6,,330
2013-3-29,55,44,32,32,30,25,85,58,33,30.80,30.77,30.72,10,10,10,13,4,17,0.00,4,,320
2013-3-30,54,44,32,32,22,13,85,48,20,30.86,30.81,30.76,10,10,10,17,5,23,0.00,1,,318
2013-3-31,57,42,26,39,25,18,85,56,21,30.88,30.76,30.50,10,10,6,12,4,21,0.03,1,,213